sensor_id;sensor_type;location;lat;lon;timestamp;P1;durP1;ratioP1;P2;durP2;ratioP2
8086;SDS011;4086;54.412;9.980;2023-05-10T00:00:27;3.20;;;2.90;;
8086;SDS011;4086;54.412;9.980;2023-05-10T00:02:54;3.77;;;3.37;;
8086;SDS011;4086;54.412;9.980;2023-05-10T00:05:20;3.70;;;3.30;;
8086;SDS011;4086;54.412;9.980;2023-05-10T00:07:46;5.70;;;2.90;;
8086;SDS011;4086;54.412;9.980;2023-05-10T00:10:13;4.50;;;2.93;;
8086;SDS011;4086;54.412;9.980;2023-05-10T00:12:39;5.27;;;3.23;;
8086;SDS011;4086;54.412;9.980;2023-05-10T00:15:06;5.37;;;3.00;;
8086;SDS011;4086;54.412;9.980;2023-05-10T00:17:35;5.10;;;3.20;;
8086;SDS011;4086;54.412;9.980;2023-05-10T00:20:02;5.43;;;3.60;;
8086;SDS011;4086;54.412;9.980;2023-05-10T00:22:29;4.37;;;3.60;;
8086;SDS011;4086;54.412;9.980;2023-05-10T00:24:56;3.73;;;3.40;;
8086;SDS011;4086;54.412;9.980;2023-05-10T00:27:22;3.50;;;3.20;;
8086;SDS011;4086;54.412;9.980;2023-05-10T00:29:49;3.53;;;3.20;;
8086;SDS011;4086;54.412;9.980;2023-05-10T00:32:15;4.77;;;3.40;;
8086;SDS011;4086;54.412;9.980;2023-05-10T00:34:43;3.43;;;3.10;;
8086;SDS011;4086;54.412;9.980;2023-05-10T00:37:09;3.93;;;3.00;;
8086;SDS011;4086;54.412;9.980;2023-05-10T00:39:36;5.00;;;3.30;;
8086;SDS011;4086;54.412;9.980;2023-05-10T00:42:03;4.87;;;3.70;;
8086;SDS011;4086;54.412;9.980;2023-05-10T00:44:30;4.97;;;3.40;;
8086;SDS011;4086;54.412;9.980;2023-05-10T00:46:57;4.63;;;3.10;;
8086;SDS011;4086;54.412;9.980;2023-05-10T00:49:24;6.67;;;3.50;;
8086;SDS011;4086;54.412;9.980;2023-05-10T00:51:51;3.87;;;2.87;;
8086;SDS011;4086;54.412;9.980;2023-05-10T00:54:18;3.50;;;3.20;;
8086;SDS011;4086;54.412;9.980;2023-05-10T00:56:44;7.63;;;3.47;;
8086;SDS011;4086;54.412;9.980;2023-05-10T00:59:14;3.87;;;3.20;;
8086;SDS011;4086;54.412;9.980;2023-05-10T01:01:41;5.00;;;3.47;;
8086;SDS011;4086;54.412;9.980;2023-05-10T01:04:07;3.57;;;3.37;;
8086;SDS011;4086;54.412;9.980;2023-05-10T01:06:35;3.63;;;3.33;;
8086;SDS011;4086;54.412;9.980;2023-05-10T01:09:02;4.27;;;3.00;;
8086;SDS011;4086;54.412;9.980;2023-05-10T01:11:29;3.30;;;3.00;;
8086;SDS011;4086;54.412;9.980;2023-05-10T01:13:55;3.20;;;2.90;;
8086;SDS011;4086;54.412;9.980;2023-05-10T01:16:22;4.00;;;3.10;;
8086;SDS011;4086;54.412;9.980;2023-05-10T01:18:49;5.77;;;3.83;;
8086;SDS011;4086;54.412;9.980;2023-05-10T01:21:19;3.87;;;3.33;;
8086;SDS011;4086;54.412;9.980;2023-05-10T01:26:54;5.20;;;3.70;;
8086;SDS011;4086;54.412;9.980;2023-05-10T01:29:58;5.27;;;3.60;;
8086;SDS011;4086;54.412;9.980;2023-05-10T01:32:33;3.70;;;3.40;;
8086;SDS011;4086;54.412;9.980;2023-05-10T01:35:03;4.17;;;3.17;;
8086;SDS011;4086;54.412;9.980;2023-05-10T01:37:37;5.53;;;3.57;;
8086;SDS011;4086;54.412;9.980;2023-05-10T01:40:08;3.60;;;3.30;;
8086;SDS011;4086;54.412;9.980;2023-05-10T01:42:40;3.50;;;3.20;;
8086;SDS011;4086;54.412;9.980;2023-05-10T01:45:12;5.40;;;3.77;;
8086;SDS011;4086;54.412;9.980;2023-05-10T01:47:44;3.47;;;3.03;;
8086;SDS011;4086;54.412;9.980;2023-05-10T01:50:15;4.30;;;3.37;;
8086;SDS011;4086;54.412;9.980;2023-05-10T01:52:44;3.57;;;3.27;;
8086;SDS011;4086;54.412;9.980;2023-05-10T01:55:14;3.77;;;3.30;;
8086;SDS011;4086;54.412;9.980;2023-05-10T01:57:42;5.20;;;3.90;;
8086;SDS011;4086;54.412;9.980;2023-05-10T02:00:10;4.30;;;3.27;;
8086;SDS011;4086;54.412;9.980;2023-05-10T02:02:39;4.23;;;3.87;;
8086;SDS011;4086;54.412;9.980;2023-05-10T02:05:08;8.07;;;3.63;;
8086;SDS011;4086;54.412;9.980;2023-05-10T02:07:35;3.60;;;3.30;;
8086;SDS011;4086;54.412;9.980;2023-05-10T02:10:02;4.43;;;3.27;;
8086;SDS011;4086;54.412;9.980;2023-05-10T02:12:31;3.97;;;3.40;;
8086;SDS011;4086;54.412;9.980;2023-05-10T02:14:58;5.70;;;3.53;;
8086;SDS011;4086;54.412;9.980;2023-05-10T02:17:25;4.87;;;3.57;;
8086;SDS011;4086;54.412;9.980;2023-05-10T02:19:52;4.57;;;3.40;;
8086;SDS011;4086;54.412;9.980;2023-05-10T02:22:20;3.87;;;3.33;;
8086;SDS011;4086;54.412;9.980;2023-05-10T02:24:48;5.00;;;3.60;;
8086;SDS011;4086;54.412;9.980;2023-05-10T02:27:15;4.93;;;3.40;;
8086;SDS011;4086;54.412;9.980;2023-05-10T02:29:43;3.80;;;3.40;;
8086;SDS011;4086;54.412;9.980;2023-05-10T02:32:10;3.93;;;3.57;;
8086;SDS011;4086;54.412;9.980;2023-05-10T02:34:37;3.53;;;3.23;;
8086;SDS011;4086;54.412;9.980;2023-05-10T02:37:04;4.43;;;3.43;;
8086;SDS011;4086;54.412;9.980;2023-05-10T02:39:32;3.70;;;3.40;;
8086;SDS011;4086;54.412;9.980;2023-05-10T02:41:59;4.50;;;3.80;;
8086;SDS011;4086;54.412;9.980;2023-05-10T02:44:27;3.73;;;3.43;;
8086;SDS011;4086;54.412;9.980;2023-05-10T02:46:56;4.30;;;3.63;;
8086;SDS011;4086;54.412;9.980;2023-05-10T02:49:22;4.23;;;3.73;;
8086;SDS011;4086;54.412;9.980;2023-05-10T02:51:50;6.80;;;3.87;;
8086;SDS011;4086;54.412;9.980;2023-05-10T02:54:18;4.97;;;4.20;;
8086;SDS011;4086;54.412;9.980;2023-05-10T02:56:50;3.97;;;3.60;;
8086;SDS011;4086;54.412;9.980;2023-05-10T02:59:17;4.03;;;3.33;;
8086;SDS011;4086;54.412;9.980;2023-05-10T03:01:44;4.10;;;3.80;;
8086;SDS011;4086;54.412;9.980;2023-05-10T03:04:10;4.13;;;3.47;;
8086;SDS011;4086;54.412;9.980;2023-05-10T03:06:36;7.63;;;3.70;;
8086;SDS011;4086;54.412;9.980;2023-05-10T03:09:03;7.57;;;3.67;;
8086;SDS011;4086;54.412;9.980;2023-05-10T03:11:32;4.00;;;3.70;;
8086;SDS011;4086;54.412;9.980;2023-05-10T03:14:13;5.67;;;3.90;;
8086;SDS011;4086;54.412;9.980;2023-05-10T03:16:46;4.27;;;3.77;;
8086;SDS011;4086;54.412;9.980;2023-05-10T03:19:16;4.83;;;3.77;;
8086;SDS011;4086;54.412;9.980;2023-05-10T03:21:44;4.13;;;3.60;;
8086;SDS011;4086;54.412;9.980;2023-05-10T03:24:15;5.77;;;4.00;;
8086;SDS011;4086;54.412;9.980;2023-05-10T03:26:43;6.17;;;3.97;;
8086;SDS011;4086;54.412;9.980;2023-05-10T03:29:11;5.23;;;3.80;;
8086;SDS011;4086;54.412;9.980;2023-05-10T03:31:39;6.70;;;3.63;;
8086;SDS011;4086;54.412;9.980;2023-05-10T03:34:05;4.73;;;3.87;;
8086;SDS011;4086;54.412;9.980;2023-05-10T03:36:32;4.30;;;3.90;;
8086;SDS011;4086;54.412;9.980;2023-05-10T03:38:58;4.03;;;3.63;;
8086;SDS011;4086;54.412;9.980;2023-05-10T03:41:25;4.57;;;4.03;;
8086;SDS011;4086;54.412;9.980;2023-05-10T03:43:51;5.60;;;3.83;;
8086;SDS011;4086;54.412;9.980;2023-05-10T03:46:19;4.33;;;3.97;;
8086;SDS011;4086;54.412;9.980;2023-05-10T03:48:45;4.27;;;3.87;;
8086;SDS011;4086;54.412;9.980;2023-05-10T03:51:12;4.70;;;4.17;;
8086;SDS011;4086;54.412;9.980;2023-05-10T03:53:38;4.67;;;4.27;;
8086;SDS011;4086;54.412;9.980;2023-05-10T03:56:05;7.00;;;4.10;;
8086;SDS011;4086;54.412;9.980;2023-05-10T03:58:31;5.70;;;4.53;;
8086;SDS011;4086;54.412;9.980;2023-05-10T04:00:58;5.10;;;3.83;;
8086;SDS011;4086;54.412;9.980;2023-05-10T04:03:26;4.70;;;3.97;;
8086;SDS011;4086;54.412;9.980;2023-05-10T04:05:58;4.80;;;4.00;;
8086;SDS011;4086;54.412;9.980;2023-05-10T04:08:25;4.40;;;4.00;;
8086;SDS011;4086;54.412;9.980;2023-05-10T04:10:51;4.47;;;3.77;;
8086;SDS011;4086;54.412;9.980;2023-05-10T04:13:18;5.10;;;4.10;;
8086;SDS011;4086;54.412;9.980;2023-05-10T04:15:44;4.50;;;4.10;;
8086;SDS011;4086;54.412;9.980;2023-05-10T04:18:11;5.30;;;4.10;;
8086;SDS011;4086;54.412;9.980;2023-05-10T04:20:38;4.80;;;4.40;;
8086;SDS011;4086;54.412;9.980;2023-05-10T04:23:05;5.10;;;4.17;;
8086;SDS011;4086;54.412;9.980;2023-05-10T04:25:33;5.03;;;4.33;;
8086;SDS011;4086;54.412;9.980;2023-05-10T04:27:59;6.10;;;4.23;;
8086;SDS011;4086;54.412;9.980;2023-05-10T04:30:26;4.20;;;3.80;;
8086;SDS011;4086;54.412;9.980;2023-05-10T04:32:54;8.27;;;3.90;;
8086;SDS011;4086;54.412;9.980;2023-05-10T04:35:20;5.10;;;4.50;;
8086;SDS011;4086;54.412;9.980;2023-05-10T04:37:48;5.00;;;4.20;;
8086;SDS011;4086;54.412;9.980;2023-05-10T04:40:14;5.47;;;4.07;;
8086;SDS011;4086;54.412;9.980;2023-05-10T04:42:41;5.13;;;4.00;;
8086;SDS011;4086;54.412;9.980;2023-05-10T04:45:07;4.77;;;4.20;;
8086;SDS011;4086;54.412;9.980;2023-05-10T04:47:35;5.47;;;4.10;;
8086;SDS011;4086;54.412;9.980;2023-05-10T04:50:02;4.60;;;4.20;;
8086;SDS011;4086;54.412;9.980;2023-05-10T04:52:30;4.57;;;4.13;;
8086;SDS011;4086;54.412;9.980;2023-05-10T04:54:57;5.10;;;4.60;;
8086;SDS011;4086;54.412;9.980;2023-05-10T04:57:24;4.40;;;3.90;;
8086;SDS011;4086;54.412;9.980;2023-05-10T04:59:50;4.67;;;4.30;;
8086;SDS011;4086;54.412;9.980;2023-05-10T05:02:17;5.73;;;4.40;;
8086;SDS011;4086;54.412;9.980;2023-05-10T05:04:43;4.67;;;4.13;;
8086;SDS011;4086;54.412;9.980;2023-05-10T05:07:09;5.00;;;4.50;;
8086;SDS011;4086;54.412;9.980;2023-05-10T05:09:36;5.73;;;4.40;;
8086;SDS011;4086;54.412;9.980;2023-05-10T05:12:04;5.10;;;4.07;;
8086;SDS011;4086;54.412;9.980;2023-05-10T05:14:30;5.80;;;4.50;;
8086;SDS011;4086;54.412;9.980;2023-05-10T05:16:57;6.73;;;4.47;;
8086;SDS011;4086;54.412;9.980;2023-05-10T05:19:24;5.60;;;4.80;;
8086;SDS011;4086;54.412;9.980;2023-05-10T05:21:50;4.70;;;4.30;;
8086;SDS011;4086;54.412;9.980;2023-05-10T05:24:16;4.67;;;4.27;;
8086;SDS011;4086;54.412;9.980;2023-05-10T05:26:43;5.53;;;4.23;;
8086;SDS011;4086;54.412;9.980;2023-05-10T05:29:10;5.40;;;4.43;;
8086;SDS011;4086;54.412;9.980;2023-05-10T05:31:37;4.70;;;4.30;;
8086;SDS011;4086;54.412;9.980;2023-05-10T05:34:03;4.77;;;4.37;;
8086;SDS011;4086;54.412;9.980;2023-05-10T05:36:29;4.70;;;3.93;;
8086;SDS011;4086;54.412;9.980;2023-05-10T05:38:56;4.50;;;4.10;;
8086;SDS011;4086;54.412;9.980;2023-05-10T05:41:23;7.37;;;5.00;;
8086;SDS011;4086;54.412;9.980;2023-05-10T05:43:49;6.37;;;4.47;;
8086;SDS011;4086;54.412;9.980;2023-05-10T05:46:17;7.77;;;4.40;;
8086;SDS011;4086;54.412;9.980;2023-05-10T05:48:44;4.90;;;4.50;;
8086;SDS011;4086;54.412;9.980;2023-05-10T05:51:10;5.60;;;4.53;;
8086;SDS011;4086;54.412;9.980;2023-05-10T05:53:36;4.80;;;4.40;;
8086;SDS011;4086;54.412;9.980;2023-05-10T05:56:03;5.13;;;4.37;;
8086;SDS011;4086;54.412;9.980;2023-05-10T05:58:30;5.13;;;4.50;;
8086;SDS011;4086;54.412;9.980;2023-05-10T06:00:56;5.40;;;4.20;;
8086;SDS011;4086;54.412;9.980;2023-05-10T06:03:24;6.03;;;4.50;;
8086;SDS011;4086;54.412;9.980;2023-05-10T06:05:51;5.10;;;4.60;;
8086;SDS011;4086;54.412;9.980;2023-05-10T06:08:17;5.03;;;4.60;;
8086;SDS011;4086;54.412;9.980;2023-05-10T06:10:43;5.47;;;4.73;;
8086;SDS011;4086;54.412;9.980;2023-05-10T06:13:10;5.10;;;4.67;;
8086;SDS011;4086;54.412;9.980;2023-05-10T06:15:36;5.13;;;4.10;;
8086;SDS011;4086;54.412;9.980;2023-05-10T06:18:03;5.13;;;4.40;;
8086;SDS011;4086;54.412;9.980;2023-05-10T06:20:32;4.67;;;4.13;;
8086;SDS011;4086;54.412;9.980;2023-05-10T06:22:58;6.70;;;4.40;;
8086;SDS011;4086;54.412;9.980;2023-05-10T06:25:25;5.60;;;4.33;;
8086;SDS011;4086;54.412;9.980;2023-05-10T06:27:51;5.10;;;4.60;;
8086;SDS011;4086;54.412;9.980;2023-05-10T06:30:22;4.77;;;4.37;;
8086;SDS011;4086;54.412;9.980;2023-05-10T06:32:52;5.00;;;4.10;;
8086;SDS011;4086;54.412;9.980;2023-05-10T06:35:18;5.43;;;4.27;;
8086;SDS011;4086;54.412;9.980;2023-05-10T06:37:46;6.00;;;4.37;;
8086;SDS011;4086;54.412;9.980;2023-05-10T06:40:13;4.90;;;4.50;;
8086;SDS011;4086;54.412;9.980;2023-05-10T06:42:39;6.03;;;4.40;;
8086;SDS011;4086;54.412;9.980;2023-05-10T06:45:06;6.17;;;4.40;;
8086;SDS011;4086;54.412;9.980;2023-05-10T06:47:34;4.70;;;4.30;;
8086;SDS011;4086;54.412;9.980;2023-05-10T06:50:00;4.70;;;4.20;;
8086;SDS011;4086;54.412;9.980;2023-05-10T06:52:27;5.43;;;4.60;;
8086;SDS011;4086;54.412;9.980;2023-05-10T06:54:54;5.10;;;4.13;;
8086;SDS011;4086;54.412;9.980;2023-05-10T06:57:21;4.93;;;4.37;;
8086;SDS011;4086;54.412;9.980;2023-05-10T06:59:47;5.67;;;4.70;;
8086;SDS011;4086;54.412;9.980;2023-05-10T07:02:14;4.57;;;4.17;;
8086;SDS011;4086;54.412;9.980;2023-05-10T07:04:41;4.90;;;4.50;;
8086;SDS011;4086;54.412;9.980;2023-05-10T07:07:07;5.20;;;4.60;;
8086;SDS011;4086;54.412;9.980;2023-05-10T07:09:34;4.80;;;4.13;;
8086;SDS011;4086;54.412;9.980;2023-05-10T07:12:02;4.93;;;4.50;;
8086;SDS011;4086;54.412;9.980;2023-05-10T07:14:29;5.20;;;4.70;;
8086;SDS011;4086;54.412;9.980;2023-05-10T07:16:55;4.90;;;4.40;;
8086;SDS011;4086;54.412;9.980;2023-05-10T07:19:21;5.03;;;4.57;;
8086;SDS011;4086;54.412;9.980;2023-05-10T07:21:48;5.13;;;4.70;;
8086;SDS011;4086;54.412;9.980;2023-05-10T07:24:15;5.33;;;4.83;;
8086;SDS011;4086;54.412;9.980;2023-05-10T07:26:42;4.60;;;4.07;;
8086;SDS011;4086;54.412;9.980;2023-05-10T07:29:09;4.87;;;4.43;;
8086;SDS011;4086;54.412;9.980;2023-05-10T07:31:36;4.80;;;4.40;;
8086;SDS011;4086;54.412;9.980;2023-05-10T07:34:02;4.87;;;4.43;;
8086;SDS011;4086;54.412;9.980;2023-05-10T07:36:28;5.07;;;4.60;;
8086;SDS011;4086;54.412;9.980;2023-05-10T07:38:55;4.83;;;4.43;;
8086;SDS011;4086;54.412;9.980;2023-05-10T07:41:22;5.43;;;4.90;;
8086;SDS011;4086;54.412;9.980;2023-05-10T07:43:49;5.00;;;4.47;;
8086;SDS011;4086;54.412;9.980;2023-05-10T07:46:16;5.27;;;4.37;;
8086;SDS011;4086;54.412;9.980;2023-05-10T07:48:44;7.87;;;5.00;;
8086;SDS011;4086;54.412;9.980;2023-05-10T07:51:10;5.03;;;4.50;;
8086;SDS011;4086;54.412;9.980;2023-05-10T07:53:37;5.30;;;4.80;;
8086;SDS011;4086;54.412;9.980;2023-05-10T07:56:19;5.27;;;4.67;;
8086;SDS011;4086;54.412;9.980;2023-05-10T07:58:46;6.53;;;5.10;;
8086;SDS011;4086;54.412;9.980;2023-05-10T08:01:13;4.93;;;4.53;;
8086;SDS011;4086;54.412;9.980;2023-05-10T08:03:40;5.23;;;4.77;;
8086;SDS011;4086;54.412;9.980;2023-05-10T08:06:07;4.93;;;4.33;;
8086;SDS011;4086;54.412;9.980;2023-05-10T08:08:33;5.33;;;4.50;;
8086;SDS011;4086;54.412;9.980;2023-05-10T08:11:00;4.90;;;4.40;;
8086;SDS011;4086;54.412;9.980;2023-05-10T08:13:26;5.47;;;4.93;;
8086;SDS011;4086;54.412;9.980;2023-05-10T08:15:52;5.70;;;4.83;;
8086;SDS011;4086;54.412;9.980;2023-05-10T08:18:19;6.47;;;4.67;;
8086;SDS011;4086;54.412;9.980;2023-05-10T08:20:47;5.00;;;4.60;;
8086;SDS011;4086;54.412;9.980;2023-05-10T08:23:13;4.70;;;4.17;;
8086;SDS011;4086;54.412;9.980;2023-05-10T08:25:40;5.10;;;4.60;;
8086;SDS011;4086;54.412;9.980;2023-05-10T08:28:07;4.80;;;4.40;;
8086;SDS011;4086;54.412;9.980;2023-05-10T08:30:33;5.07;;;4.50;;
8086;SDS011;4086;54.412;9.980;2023-05-10T08:32:59;4.80;;;4.37;;
8086;SDS011;4086;54.412;9.980;2023-05-10T08:35:26;5.33;;;4.20;;
8086;SDS011;4086;54.412;9.980;2023-05-10T08:37:53;5.63;;;4.57;;
8086;SDS011;4086;54.412;9.980;2023-05-10T08:40:20;5.77;;;4.97;;
8086;SDS011;4086;54.412;9.980;2023-05-10T08:42:47;5.23;;;4.83;;
8086;SDS011;4086;54.412;9.980;2023-05-10T08:45:17;5.17;;;4.67;;
8086;SDS011;4086;54.412;9.980;2023-05-10T08:47:45;5.80;;;5.30;;
8086;SDS011;4086;54.412;9.980;2023-05-10T08:50:12;6.57;;;5.23;;
8086;SDS011;4086;54.412;9.980;2023-05-10T08:52:38;5.73;;;5.13;;
8086;SDS011;4086;54.412;9.980;2023-05-10T08:55:08;5.57;;;4.60;;
8086;SDS011;4086;54.412;9.980;2023-05-10T08:57:35;5.40;;;4.90;;
8086;SDS011;4086;54.412;9.980;2023-05-10T09:00:02;5.20;;;4.70;;
8086;SDS011;4086;54.412;9.980;2023-05-10T09:02:29;4.73;;;4.27;;
8086;SDS011;4086;54.412;9.980;2023-05-10T09:04:55;5.57;;;4.73;;
8086;SDS011;4086;54.412;9.980;2023-05-10T09:07:22;5.80;;;5.23;;
8086;SDS011;4086;54.412;9.980;2023-05-10T09:09:48;5.53;;;4.67;;
8086;SDS011;4086;54.412;9.980;2023-05-10T09:12:16;5.80;;;4.67;;
8086;SDS011;4086;54.412;9.980;2023-05-10T09:14:43;4.80;;;4.33;;
8086;SDS011;4086;54.412;9.980;2023-05-10T09:17:10;5.27;;;4.73;;
8086;SDS011;4086;54.412;9.980;2023-05-10T09:19:37;7.27;;;5.60;;
8086;SDS011;4086;54.412;9.980;2023-05-10T09:22:03;5.40;;;4.90;;
8086;SDS011;4086;54.412;9.980;2023-05-10T09:24:30;5.13;;;4.73;;
8086;SDS011;4086;54.412;9.980;2023-05-10T09:26:57;5.63;;;5.00;;
8086;SDS011;4086;54.412;9.980;2023-05-10T09:29:25;6.50;;;5.10;;
8086;SDS011;4086;54.412;9.980;2023-05-10T09:31:51;5.73;;;5.23;;
8086;SDS011;4086;54.412;9.980;2023-05-10T09:34:20;5.73;;;4.60;;
8086;SDS011;4086;54.412;9.980;2023-05-10T09:36:54;5.10;;;4.60;;
8086;SDS011;4086;54.412;9.980;2023-05-10T09:39:28;6.03;;;5.07;;
8086;SDS011;4086;54.412;9.980;2023-05-10T09:41:56;5.87;;;4.93;;
8086;SDS011;4086;54.412;9.980;2023-05-10T09:44:26;5.53;;;5.03;;
8086;SDS011;4086;54.412;9.980;2023-05-10T09:46:52;5.60;;;4.97;;
8086;SDS011;4086;54.412;9.980;2023-05-10T09:49:18;4.80;;;4.40;;
8086;SDS011;4086;54.412;9.980;2023-05-10T09:51:45;8.80;;;4.60;;
8086;SDS011;4086;54.412;9.980;2023-05-10T09:54:13;5.03;;;4.63;;
8086;SDS011;4086;54.412;9.980;2023-05-10T09:56:40;5.20;;;4.70;;
8086;SDS011;4086;54.412;9.980;2023-05-10T09:59:09;4.63;;;4.30;;
8086;SDS011;4086;54.412;9.980;2023-05-10T10:01:37;5.20;;;4.43;;
8086;SDS011;4086;54.412;9.980;2023-05-10T10:04:06;5.40;;;4.90;;
8086;SDS011;4086;54.412;9.980;2023-05-10T10:06:36;6.17;;;4.83;;
8086;SDS011;4086;54.412;9.980;2023-05-10T10:09:03;6.13;;;4.70;;
8086;SDS011;4086;54.412;9.980;2023-05-10T10:11:30;5.70;;;5.10;;
8086;SDS011;4086;54.412;9.980;2023-05-10T10:13:57;5.47;;;4.97;;
8086;SDS011;4086;54.412;9.980;2023-05-10T10:16:24;5.47;;;4.97;;
8086;SDS011;4086;54.412;9.980;2023-05-10T10:18:52;6.10;;;4.90;;
8086;SDS011;4086;54.412;9.980;2023-05-10T10:21:18;5.77;;;5.00;;
8086;SDS011;4086;54.412;9.980;2023-05-10T10:23:45;5.17;;;4.67;;
8086;SDS011;4086;54.412;9.980;2023-05-10T10:26:12;7.63;;;4.60;;
8086;SDS011;4086;54.412;9.980;2023-05-10T10:28:39;5.37;;;4.97;;
8086;SDS011;4086;54.412;9.980;2023-05-10T10:31:15;6.30;;;5.23;;
8086;SDS011;4086;54.412;9.980;2023-05-10T10:33:56;6.20;;;5.60;;
8086;SDS011;4086;54.412;9.980;2023-05-10T10:36:26;6.73;;;5.23;;
8086;SDS011;4086;54.412;9.980;2023-05-10T10:38:57;5.80;;;5.30;;
8086;SDS011;4086;54.412;9.980;2023-05-10T10:41:29;5.80;;;5.30;;
8086;SDS011;4086;54.412;9.980;2023-05-10T10:46:58;6.27;;;5.37;;
8086;SDS011;4086;54.412;9.980;2023-05-10T10:49:48;5.83;;;5.17;;
8086;SDS011;4086;54.412;9.980;2023-05-10T10:52:23;6.63;;;5.30;;
8086;SDS011;4086;54.412;9.980;2023-05-10T10:54:54;6.43;;;5.00;;
8086;SDS011;4086;54.412;9.980;2023-05-10T10:57:25;5.47;;;4.97;;
8086;SDS011;4086;54.412;9.980;2023-05-10T10:59:54;5.37;;;4.97;;
8086;SDS011;4086;54.412;9.980;2023-05-10T11:02:50;5.40;;;5.00;;
8086;SDS011;4086;54.412;9.980;2023-05-10T11:05:32;6.63;;;4.97;;
8086;SDS011;4086;54.412;9.980;2023-05-10T11:08:07;4.60;;;4.20;;
8086;SDS011;4086;54.412;9.980;2023-05-10T11:10:37;5.50;;;5.00;;
8086;SDS011;4086;54.412;9.980;2023-05-10T11:13:05;5.03;;;4.63;;
8086;SDS011;4086;54.412;9.980;2023-05-10T11:15:33;5.80;;;5.20;;
8086;SDS011;4086;54.412;9.980;2023-05-10T11:18:16;5.27;;;4.77;;
8086;SDS011;4086;54.412;9.980;2023-05-10T11:20:45;5.50;;;4.70;;
8086;SDS011;4086;54.412;9.980;2023-05-10T11:23:16;5.10;;;4.43;;
8086;SDS011;4086;54.412;9.980;2023-05-10T11:25:43;6.37;;;5.20;;
8086;SDS011;4086;54.412;9.980;2023-05-10T11:28:10;5.17;;;4.77;;
8086;SDS011;4086;54.412;9.980;2023-05-10T11:30:37;5.43;;;4.93;;
8086;SDS011;4086;54.412;9.980;2023-05-10T11:33:04;7.40;;;4.80;;
8086;SDS011;4086;54.412;9.980;2023-05-10T11:35:31;5.87;;;4.30;;
8086;SDS011;4086;54.412;9.980;2023-05-10T11:38:06;5.73;;;5.00;;
8086;SDS011;4086;54.412;9.980;2023-05-10T11:40:32;4.87;;;4.47;;
8086;SDS011;4086;54.412;9.980;2023-05-10T11:42:59;6.10;;;5.60;;
8086;SDS011;4086;54.412;9.980;2023-05-10T11:45:26;5.53;;;5.00;;
8086;SDS011;4086;54.412;9.980;2023-05-10T11:47:53;5.60;;;5.10;;
8086;SDS011;4086;54.412;9.980;2023-05-10T11:50:20;8.07;;;5.10;;
8086;SDS011;4086;54.412;9.980;2023-05-10T11:52:49;8.27;;;5.27;;
8086;SDS011;4086;54.412;9.980;2023-05-10T11:55:18;7.40;;;4.80;;
8086;SDS011;4086;54.412;9.980;2023-05-10T11:57:44;5.37;;;4.87;;
8086;SDS011;4086;54.412;9.980;2023-05-10T12:00:11;6.43;;;5.40;;
8086;SDS011;4086;54.412;9.980;2023-05-10T12:02:38;7.23;;;5.30;;
8086;SDS011;4086;54.412;9.980;2023-05-10T12:05:05;6.87;;;5.33;;
8086;SDS011;4086;54.412;9.980;2023-05-10T12:07:32;5.57;;;5.07;;
8086;SDS011;4086;54.412;9.980;2023-05-10T12:10:02;5.50;;;4.90;;
8086;SDS011;4086;54.412;9.980;2023-05-10T12:12:36;7.93;;;5.33;;
8086;SDS011;4086;54.412;9.980;2023-05-10T12:15:03;6.37;;;5.77;;
8086;SDS011;4086;54.412;9.980;2023-05-10T12:17:31;5.87;;;5.37;;
8086;SDS011;4086;54.412;9.980;2023-05-10T12:19:58;5.83;;;5.23;;
8086;SDS011;4086;54.412;9.980;2023-05-10T12:22:25;5.80;;;5.30;;
8086;SDS011;4086;54.412;9.980;2023-05-10T12:24:51;5.93;;;5.33;;
8086;SDS011;4086;54.412;9.980;2023-05-10T12:27:18;6.70;;;6.10;;
8086;SDS011;4086;54.412;9.980;2023-05-10T12:29:45;7.57;;;6.47;;
8086;SDS011;4086;54.412;9.980;2023-05-10T12:32:14;8.20;;;7.43;;
8086;SDS011;4086;54.412;9.980;2023-05-10T12:34:40;10.33;;;9.20;;
8086;SDS011;4086;54.412;9.980;2023-05-10T12:37:06;10.03;;;9.00;;
8086;SDS011;4086;54.412;9.980;2023-05-10T12:39:39;10.17;;;9.17;;
8086;SDS011;4086;54.412;9.980;2023-05-10T12:42:06;11.50;;;10.33;;
8086;SDS011;4086;54.412;9.980;2023-05-10T12:44:33;10.80;;;9.90;;
8086;SDS011;4086;54.412;9.980;2023-05-10T12:47:00;11.43;;;10.40;;
8086;SDS011;4086;54.412;9.980;2023-05-10T12:49:27;11.80;;;10.60;;
8086;SDS011;4086;54.412;9.980;2023-05-10T12:51:54;11.70;;;10.50;;
8086;SDS011;4086;54.412;9.980;2023-05-10T12:54:20;12.50;;;11.30;;
8086;SDS011;4086;54.412;9.980;2023-05-10T12:56:46;12.80;;;11.27;;
8086;SDS011;4086;54.412;9.980;2023-05-10T12:59:13;13.27;;;12.07;;
8086;SDS011;4086;54.412;9.980;2023-05-10T13:01:39;12.60;;;11.40;;
8086;SDS011;4086;54.412;9.980;2023-05-10T13:04:07;12.77;;;11.47;;
8086;SDS011;4086;54.412;9.980;2023-05-10T13:06:33;16.27;;;13.07;;
8086;SDS011;4086;54.412;9.980;2023-05-10T13:09:00;12.53;;;11.37;;
8086;SDS011;4086;54.412;9.980;2023-05-10T13:11:26;13.40;;;12.20;;
8086;SDS011;4086;54.412;9.980;2023-05-10T13:13:53;13.40;;;12.20;;
8086;SDS011;4086;54.412;9.980;2023-05-10T13:16:19;12.63;;;11.50;;
8086;SDS011;4086;54.412;9.980;2023-05-10T13:18:45;12.93;;;11.63;;
8086;SDS011;4086;54.412;9.980;2023-05-10T13:21:13;12.93;;;11.83;;
8086;SDS011;4086;54.412;9.980;2023-05-10T13:23:39;12.73;;;11.40;;
8086;SDS011;4086;54.412;9.980;2023-05-10T13:26:06;12.47;;;11.27;;
8086;SDS011;4086;54.412;9.980;2023-05-10T13:28:32;11.93;;;10.83;;
8086;SDS011;4086;54.412;9.980;2023-05-10T13:30:58;12.90;;;11.60;;
8086;SDS011;4086;54.412;9.980;2023-05-10T13:33:25;12.30;;;11.20;;
8086;SDS011;4086;54.412;9.980;2023-05-10T13:35:52;14.03;;;12.57;;
8086;SDS011;4086;54.412;9.980;2023-05-10T13:38:19;12.43;;;11.13;;
8086;SDS011;4086;54.412;9.980;2023-05-10T13:40:46;12.93;;;11.50;;
8086;SDS011;4086;54.412;9.980;2023-05-10T13:43:12;12.87;;;11.77;;
8086;SDS011;4086;54.412;9.980;2023-05-10T13:45:38;13.73;;;12.53;;
8086;SDS011;4086;54.412;9.980;2023-05-10T13:48:05;13.20;;;12.00;;
8086;SDS011;4086;54.412;9.980;2023-05-10T13:50:31;12.83;;;11.73;;
8086;SDS011;4086;54.412;9.980;2023-05-10T13:52:58;11.87;;;10.67;;
8086;SDS011;4086;54.412;9.980;2023-05-10T13:55:25;13.63;;;12.23;;
8086;SDS011;4086;54.412;9.980;2023-05-10T13:57:52;12.80;;;11.50;;
8086;SDS011;4086;54.412;9.980;2023-05-10T14:00:18;12.60;;;11.50;;
8086;SDS011;4086;54.412;9.980;2023-05-10T14:02:45;12.90;;;11.70;;
8086;SDS011;4086;54.412;9.980;2023-05-10T14:05:11;12.90;;;11.70;;
8086;SDS011;4086;54.412;9.980;2023-05-10T14:07:38;12.93;;;11.73;;
8086;SDS011;4086;54.412;9.980;2023-05-10T14:10:04;11.70;;;10.60;;
8086;SDS011;4086;54.412;9.980;2023-05-10T14:12:33;12.70;;;11.50;;
8086;SDS011;4086;54.412;9.980;2023-05-10T14:14:59;13.03;;;11.80;;
8086;SDS011;4086;54.412;9.980;2023-05-10T14:17:26;13.20;;;11.97;;
8086;SDS011;4086;54.412;9.980;2023-05-10T14:19:52;12.67;;;11.50;;
8086;SDS011;4086;54.412;9.980;2023-05-10T14:22:19;11.60;;;10.60;;
8086;SDS011;4086;54.412;9.980;2023-05-10T14:24:45;13.67;;;12.37;;
8086;SDS011;4086;54.412;9.980;2023-05-10T14:27:12;13.27;;;12.07;;
8086;SDS011;4086;54.412;9.980;2023-05-10T14:29:39;12.10;;;11.00;;
8086;SDS011;4086;54.412;9.980;2023-05-10T14:32:06;13.37;;;12.17;;
8086;SDS011;4086;54.412;9.980;2023-05-10T14:34:32;13.27;;;11.87;;
8086;SDS011;4086;54.412;9.980;2023-05-10T14:36:59;13.67;;;12.47;;
8086;SDS011;4086;54.412;9.980;2023-05-10T14:39:25;13.67;;;12.27;;
8086;SDS011;4086;54.412;9.980;2023-05-10T14:41:54;12.37;;;11.00;;
8086;SDS011;4086;54.412;9.980;2023-05-10T14:44:20;12.60;;;11.50;;
8086;SDS011;4086;54.412;9.980;2023-05-10T14:46:48;13.40;;;12.10;;
8086;SDS011;4086;54.412;9.980;2023-05-10T14:49:15;12.77;;;11.57;;
8086;SDS011;4086;54.412;9.980;2023-05-10T14:51:41;12.73;;;11.57;;
8086;SDS011;4086;54.412;9.980;2023-05-10T14:54:07;12.67;;;11.57;;
8086;SDS011;4086;54.412;9.980;2023-05-10T14:56:34;12.87;;;11.50;;
8086;SDS011;4086;54.412;9.980;2023-05-10T14:59:02;12.30;;;11.20;;
8086;SDS011;4086;54.412;9.980;2023-05-10T15:01:28;12.77;;;11.63;;
8086;SDS011;4086;54.412;9.980;2023-05-10T15:03:58;11.50;;;10.47;;
8086;SDS011;4086;54.412;9.980;2023-05-10T15:06:29;11.90;;;10.73;;
8086;SDS011;4086;54.412;9.980;2023-05-10T15:08:56;11.13;;;10.13;;
8086;SDS011;4086;54.412;9.980;2023-05-10T15:11:23;11.53;;;10.43;;
8086;SDS011;4086;54.412;9.980;2023-05-10T15:13:49;11.33;;;10.33;;
8086;SDS011;4086;54.412;9.980;2023-05-10T15:16:15;10.40;;;9.47;;
8086;SDS011;4086;54.412;9.980;2023-05-10T15:18:42;10.00;;;9.10;;